Time;durP1;ratioP1;P1;durP2;ratioP2;P2;SDS_P1;SDS_P2;PMS_P1;PMS_P2;Temp;Humidity;BMP_temperature;BMP_pressure;BME280_temperature;BME280_humidity;BME280_pressure;Samples;Min_cycle;Max_cycle;Signal;HPM_P1;HPM_P2
2022/05/21 00:01:53;;;;;;;24.65;16.27;;;;;;;10.28;94.92;101864.28;5076004;28;20472;-59
2022/05/21 00:04:19;;;;;;;24.58;16.33;;;;;;;10.38;94.75;101858.78;5076084;28;20035;-59
2022/05/21 00:06:44;;;;;;;24.13;15.50;;;;;;;10.42;94.06;101854.31;5076028;28;20016;-58
2022/05/21 00:09:10;;;;;;;24.23;14.80;;;;;;;10.44;94.43;101868.69;5075965;28;20104;-59
2022/05/21 00:11:36;;;;;;;23.27;15.73;;;;;;;10.51;94.68;101865.66;5076163;28;20031;-59
2022/05/21 00:14:02;;;;;;;23.40;15.80;;;;;;;10.57;94.03;101864.50;5076035;28;20043;-60
2022/05/21 00:16:29;;;;;;;24.63;15.48;;;;;;;10.61;93.76;101860.09;5075634;28;20028;-59
2022/05/21 00:18:55;;;;;;;24.90;15.65;;;;;;;10.68;93.41;101864.47;5075866;28;20024;-59
2022/05/21 00:21:20;;;;;;;22.23;15.35;;;;;;;10.71;93.50;101861.97;5075061;28;20398;-59
2022/05/21 00:23:45;;;;;;;22.45;14.82;;;;;;;10.77;92.91;101868.31;5075174;28;20049;-60
2022/05/21 00:26:14;;;;;;;22.02;15.07;;;;;;;10.73;92.65;101848.69;5075180;28;20033;-59
2022/05/21 00:28:42;;;;;;;25.00;15.30;;;;;;;10.75;92.35;101842.88;5075109;28;20041;-59
2022/05/21 00:31:09;;;;;;;22.63;14.75;;;;;;;10.87;92.28;101865.53;5074886;28;20039;-59
2022/05/21 00:33:36;;;;;;;23.48;13.90;;;;;;;10.91;91.69;101858.28;5075497;28;20028;-60
2022/05/21 00:36:02;;;;;;;24.20;13.93;;;;;;;10.90;91.58;101856.66;5075670;28;20021;-59
2022/05/21 00:38:27;;;;;;;23.67;14.00;;;;;;;10.93;91.28;101864.38;5075286;28;20525;-59
2022/05/21 00:40:54;;;;;;;20.52;12.93;;;;;;;10.94;90.55;101865.22;5074766;28;20383;-59
2022/05/21 00:43:41;;;;;;;20.77;12.95;;;;;;;10.97;91.45;101861.88;5075266;28;20115;-60
2022/05/21 00:46:13;;;;;;;23.02;13.48;;;;;;;10.95;91.06;101846.66;5073489;28;20040;-60
2022/05/21 00:48:40;;;;;;;22.98;13.80;;;;;;;11.01;90.84;101862.97;5074922;28;20239;-58
2022/05/21 00:51:10;;;;;;;21.27;13.20;;;;;;;10.90;90.39;101853.91;5074629;28;20107;-57
2022/05/21 00:53:36;;;;;;;21.55;13.75;;;;;;;10.92;90.88;101853.59;5073644;28;20036;-58
2022/05/21 00:56:02;;;;;;;22.38;13.77;;;;;;;10.98;91.05;101862.72;5074160;28;20035;-58
2022/05/21 01:01:15;;;;;;;21.67;13.70;;;;;;;10.99;90.51;101870.72;5074677;28;20031;-58
2022/05/21 01:03:42;;;;;;;21.83;13.52;;;;;;;11.05;90.68;101877.06;5075062;28;20086;-58
2022/05/21 01:06:08;;;;;;;21.33;13.30;;;;;;;11.03;90.41;101869.06;5074309;28;20380;-58
2022/05/21 01:08:33;;;;;;;20.92;13.38;;;;;;;11.06;90.53;101862.94;5074643;28;20070;-59
2022/05/21 01:11:02;;;;;;;21.98;12.90;;;;;;;11.02;90.67;101864.63;5074372;28;20028;-58
2022/05/21 01:13:33;;;;;;;21.10;13.10;;;;;;;11.05;90.23;101869.56;5074164;28;20020;-59
2022/05/21 01:15:59;;;;;;;21.02;12.77;;;;;;;11.02;90.54;101864.63;5074036;28;20372;-58
2022/05/21 01:18:24;;;;;;;21.80;12.57;;;;;;;11.04;90.34;101869.88;5074011;28;20428;-58
2022/05/21 01:20:56;;;;;;;20.20;12.77;;;;;;;10.95;90.44;101843.88;5074160;28;20379;-59
2022/05/21 01:23:21;;;;;;;21.65;12.93;;;;;;;11.07;90.48;101863.78;5074000;28;20033;-59
2022/05/21 01:25:48;;;;;;;21.77;12.88;;;;;;;11.11;90.46;101870.38;5074454;28;20062;-59
2022/05/21 01:28:18;;;;;;;20.35;13.07;;;;;;;11.04;90.46;101853.25;5072476;28;20093;-58
2022/05/21 01:30:56;;;;;;;20.38;12.32;;;;;;;11.17;89.98;101865.66;5072540;28;20052;-58
2022/05/21 01:33:28;;;;;;;19.80;12.32;;;;;;;11.13;90.26;101853.50;5073458;28;20040;-58
2022/05/21 01:35:53;;;;;;;22.15;12.18;;;;;;;11.16;89.96;101864.84;5073927;28;20100;-58
2022/05/21 01:38:22;;;;;;;22.45;12.82;;;;;;;11.13;90.54;101861.81;5073922;28;20119;-58
2022/05/21 01:40:48;;;;;;;21.58;12.88;;;;;;;11.11;89.98;101847.41;5074105;28;20020;-58
2022/05/21 01:45:59;;;;;;;21.05;12.18;;;;;;;11.18;89.83;101856.22;5074010;28;20055;-58
2022/05/21 01:48:26;;;;;;;21.10;12.32;;;;;;;11.00;90.63;101841.13;5073666;28;20029;-58
2022/05/21 01:50:53;;;;;;;21.90;12.73;;;;;;;11.17;90.17;101862.88;5073433;28;20064;-58
2022/05/21 01:53:20;;;;;;;21.00;12.35;;;;;;;11.15;90.19;101854.88;5073022;28;20147;-58
2022/05/21 01:55:47;;;;;;;22.55;12.70;;;;;;;11.09;90.23;101850.47;5073266;28;20032;-58
2022/05/21 01:58:13;;;;;;;21.48;12.68;;;;;;;11.14;90.54;101863.47;5072887;28;20066;-58
2022/05/21 02:00:40;;;;;;;21.20;12.13;;;;;;;11.11;90.38;101853.78;5073101;28;20025;-58
2022/05/21 02:03:10;;;;;;;21.83;12.48;;;;;;;11.13;90.08;101857.09;5073681;28;20068;-58
2022/05/21 02:05:36;;;;;;;23.70;13.10;;;;;;;11.14;90.86;101864.28;5072683;28;20062;-57
2022/05/21 02:08:02;;;;;;;20.55;12.18;;;;;;;11.13;90.74;101856.28;5074264;28;20059;-58
2022/05/21 02:10:27;;;;;;;19.65;12.18;;;;;;;11.16;91.15;101858.44;5073395;28;20107;-57
2022/05/21 02:12:53;;;;;;;21.58;12.98;;;;;;;11.14;91.54;101857.94;5073126;28;20062;-58
2022/05/21 02:15:18;;;;;;;22.08;12.85;;;;;;;11.17;90.83;101860.97;5072926;28;20032;-58
2022/05/21 02:17:44;;;;;;;23.98;13.70;;;;;;;11.20;90.64;101865.09;5072886;28;20031;-58
2022/05/21 02:20:09;;;;;;;23.92;13.20;;;;;;;11.16;91.10;101847.38;5072946;28;20391;-58
2022/05/21 02:22:36;;;;;;;21.77;14.07;;;;;;;11.22;91.09;101865.63;5072520;28;20039;-59
2022/05/21 02:25:06;;;;;;;23.30;14.23;;;;;;;11.21;90.95;101875.06;5073164;28;20052;-58
2022/05/21 02:27:31;;;;;;;23.63;14.07;;;;;;;11.26;90.78;101866.72;5072712;28;20436;-58
2022/05/21 02:29:56;;;;;;;23.20;14.55;;;;;;;11.25;91.01;101873.34;5071586;28;20115;-58
2022/05/21 02:32:22;;;;;;;24.15;13.65;;;;;;;11.27;91.27;101870.31;5072832;28;20025;-58
2022/05/21 02:34:47;;;;;;;24.00;14.45;;;;;;;11.27;90.49;101862.81;5072618;28;20113;-58
2022/05/21 02:39:56;;;;;;;24.95;13.65;;;;;;;11.26;90.69;101863.13;5072275;28;20034;-58
2022/05/21 02:45:06;;;;;;;23.95;14.88;;;;;;;11.29;90.88;101855.06;5072863;28;20103;-58
2022/05/21 02:47:32;;;;;;;22.80;14.43;;;;;;;11.26;90.66;101855.63;5072495;28;20021;-59
2022/05/21 02:49:57;;;;;;;24.50;14.55;;;;;;;11.26;90.78;101857.59;5072522;28;20040;-58
2022/05/21 02:52:22;;;;;;;24.13;14.90;;;;;;;11.26;91.31;101852.03;5072322;28;20135;-58
2022/05/21 02:54:48;;;;;;;26.42;15.02;;;;;;;11.30;90.89;101858.66;5072462;28;20463;-58
2022/05/21 02:57:13;;;;;;;24.80;14.85;;;;;;;11.30;91.22;101859.50;5072241;28;20081;-58
2022/05/21 02:59:39;;;;;;;25.63;14.73;;;;;;;11.27;91.50;101865.59;5072531;28;20033;-58
2022/05/21 03:02:05;;;;;;;25.17;15.23;;;;;;;11.27;91.07;101862.81;5072446;28;20452;-57
2022/05/21 03:04:31;;;;;;;23.35;14.95;;;;;;;11.29;91.12;101868.91;5072542;28;20033;-57
2022/05/21 03:06:57;;;;;;;26.27;14.75;;;;;;;11.26;91.42;101860.34;5072712;28;20028;-58
2022/05/21 03:12:08;;;;;;;24.48;15.52;;;;;;;11.28;91.33;101872.78;5073027;28;20039;-58
2022/05/21 03:14:33;;;;;;;24.95;14.18;;;;;;;11.32;91.53;101867.50;5072660;28;20021;-57
2022/05/21 03:17:02;;;;;;;25.60;14.27;;;;;;;11.27;91.66;101864.78;5071422;28;20029;-58
2022/05/21 03:19:29;;;;;;;23.40;14.40;;;;;;;11.26;91.86;101863.13;5071141;28;20039;-58
2022/05/21 03:21:55;;;;;;;21.30;14.38;;;;;;;11.29;91.37;101859.78;5071871;28;20021;-58
2022/05/21 03:24:20;;;;;;;23.40;13.90;;;;;;;11.28;91.97;101867.25;5071737;28;20640;-57
2022/05/21 03:26:46;;;;;;;26.13;14.20;;;;;;;11.18;91.73;101845.16;5071628;28;20158;-58
2022/05/21 03:29:12;;;;;;;23.63;13.90;;;;;;;11.31;91.71;101857.53;5071793;28;20318;-59
2022/05/21 03:31:37;;;;;;;27.27;14.15;;;;;;;11.30;91.24;101865.03;5071914;28;20035;-58
2022/05/21 03:34:02;;;;;;;22.95;14.88;;;;;;;11.32;92.00;101873.06;5072057;28;20033;-58
2022/05/21 03:36:28;;;;;;;25.20;14.98;;;;;;;11.32;91.40;101867.50;5071110;28;20032;-58
2022/05/21 03:38:55;;;;;;;24.23;15.25;;;;;;;11.29;91.73;101866.16;5072339;28;20100;-59
2022/05/21 03:41:20;;;;;;;24.25;15.18;;;;;;;11.29;92.01;101863.38;5072657;28;20098;-58
2022/05/21 03:43:46;;;;;;;24.58;15.07;;;;;;;11.34;92.62;101879.94;5072377;28;20094;-59
2022/05/21 03:46:11;;;;;;;23.48;14.55;;;;;;;11.31;92.07;101876.94;5070697;28;20020;-59
2022/05/21 03:48:36;;;;;;;25.33;14.85;;;;;;;11.30;92.31;101873.34;5072260;28;20113;-58
2022/05/21 03:51:02;;;;;;;22.60;14.88;;;;;;;11.34;92.18;101881.91;5072371;28;20368;-58
2022/05/21 03:53:28;;;;;;;26.23;15.10;;;;;;;11.34;91.94;101876.38;5071941;28;20052;-60
2022/05/21 03:55:54;;;;;;;27.02;14.55;;;;;;;11.33;92.29;101881.09;5072233;28;20128;-59
2022/05/21 03:58:19;;;;;;;24.00;15.35;;;;;;;11.26;92.06;101868.66;5072789;28;20483;-59
2022/05/21 04:00:45;;;;;;;26.58;15.00;;;;;;;11.32;91.89;101873.91;5071739;28;20478;-59
2022/05/21 04:03:10;;;;;;;23.90;15.38;;;;;;;11.29;91.92;101868.09;5071703;28;20502;-59
2022/05/21 04:05:36;;;;;;;25.58;14.88;;;;;;;11.33;92.50;101880.25;5070566;28;20035;-59
2022/05/21 04:08:02;;;;;;;24.60;14.85;;;;;;;11.33;92.40;101881.09;5072329;28;20024;-59
2022/05/21 04:10:28;;;;;;;25.35;14.95;;;;;;;11.32;92.50;101882.19;5071963;28;20021;-59
2022/05/21 04:12:53;;;;;;;25.35;15.13;;;;;;;11.34;92.24;101885.50;5069843;28;20066;-59
2022/05/21 04:15:19;;;;;;;25.42;15.85;;;;;;;11.34;92.25;101879.13;5071410;28;20440;-59
2022/05/21 04:17:44;;;;;;;23.60;15.27;;;;;;;11.37;91.81;101892.44;5070159;28;20051;-59
2022/05/21 04:20:13;;;;;;;27.60;15.35;;;;;;;11.36;92.26;101894.34;5070004;28;20082;-59
2022/05/21 04:22:39;;;;;;;24.73;15.10;;;;;;;11.37;92.18;101897.97;5071229;28;20017;-59
2022/05/21 04:25:06;;;;;;;24.70;15.23;;;;;;;11.38;92.02;101894.91;5071790;28;20075;-58
2022/05/21 04:27:33;;;;;;;26.90;15.30;;;;;;;11.40;92.39;101905.69;5071570;28;20094;-59
2022/05/21 04:29:58;;;;;;;25.13;14.40;;;;;;;11.46;91.74;101903.72;5073754;28;20028;-59
2022/05/21 04:32:23;;;;;;;29.58;15.20;;;;;;;11.48;91.85;101898.72;5075070;28;20031;-60
2022/05/21 04:34:48;;;;;;;25.58;15.27;;;;;;;11.51;91.90;101903.72;5074917;28;20035;-57
2022/05/21 04:37:14;;;;;;;27.35;14.98;;;;;;;11.55;91.86;101902.00;5074894;28;20038;-57
2022/05/21 04:39:39;;;;;;;25.35;14.75;;;;;;;11.54;91.43;101914.19;5074476;28;20392;-59
2022/05/21 04:42:05;;;;;;;29.63;15.60;;;;;;;11.55;91.55;101915.84;5074209;28;20142;-59
2022/05/21 04:44:35;;;;;;;25.35;15.32;;;;;;;11.57;91.98;101913.63;5073413;28;20025;-59
2022/05/21 04:47:02;;;;;;;28.05;15.85;;;;;;;11.59;92.05;101916.09;5074717;28;20020;-59
2022/05/21 04:49:27;;;;;;;28.27;15.68;;;;;;;11.64;92.29;101907.78;5074493;28;20380;-59
2022/05/21 04:51:52;;;;;;;29.08;15.30;;;;;;;11.67;91.71;101912.72;5074738;28;20029;-58
2022/05/21 04:54:18;;;;;;;26.60;15.48;;;;;;;11.70;91.27;101904.69;5074215;28;20020;-59
2022/05/21 04:56:43;;;;;;;26.25;15.32;;;;;;;11.71;91.03;101916.59;5073106;28;20089;-59
2022/05/21 04:59:10;;;;;;;24.75;15.38;;;;;;;11.74;91.42;101909.63;5074281;28;20086;-58
2022/05/21 05:01:37;;;;;;;27.27;14.68;;;;;;;11.73;91.88;101911.59;5074373;28;20116;-59
2022/05/21 05:04:03;;;;;;;28.20;14.80;;;;;;;11.74;91.85;101913.25;5074170;28;20028;-59
2022/05/21 05:06:28;;;;;;;25.88;14.13;;;;;;;11.77;91.61;101918.19;5072697;28;20029;-59
2022/05/21 05:08:53;;;;;;;27.10;15.40;;;;;;;11.82;91.53;101923.72;5074058;28;20024;-59
2022/05/21 05:11:18;;;;;;;28.33;15.60;;;;;;;11.90;90.90;101913.13;5074092;28;20434;-59
2022/05/21 05:13:44;;;;;;;27.42;14.75;;;;;;;11.91;91.54;101915.59;5072999;28;20031;-58
2022/05/21 05:16:09;;;;;;;28.98;16.30;;;;;;;11.94;90.49;101919.78;5074186;28;20119;-59
2022/05/21 05:18:34;;;;;;;25.70;14.48;;;;;;;12.01;90.38;101921.09;5072003;28;20406;-59
2022/05/21 05:21:01;;;;;;;29.40;14.95;;;;;;;12.01;90.76;101923.06;5073848;28;20035;-59
2022/05/21 05:23:27;;;;;;;28.13;15.52;;;;;;;12.04;90.56;101936.38;5073905;28;20491;-59
2022/05/21 05:25:53;;;;;;;28.48;14.93;;;;;;;12.11;90.58;101934.06;5074103;28;20036;-59
2022/05/21 05:28:22;;;;;;;26.98;15.30;;;;;;;12.10;90.22;101915.78;5073384;28;20040;-59
2022/05/21 05:30:47;;;;;;;32.97;17.85;;;;;;;12.17;89.41;101941.22;5074193;28;20539;-58
2022/05/21 05:33:14;;;;;;;27.15;15.43;;;;;;;12.16;89.77;101941.53;5073983;28;20107;-58
2022/05/21 05:35:39;;;;;;;29.63;15.50;;;;;;;12.19;90.05;101945.66;5073789;28;20044;-59
2022/05/21 05:38:09;;;;;;;28.00;15.77;;;;;;;12.26;89.92;101943.38;5073895;28;20367;-60
2022/05/21 05:40:35;;;;;;;28.42;15.38;;;;;;;12.27;89.79;101951.44;5072634;28;20123;-58
2022/05/21 05:43:02;;;;;;;28.95;16.02;;;;;;;12.30;89.12;101952.78;5074193;28;20044;-58
2022/05/21 05:45:27;;;;;;;27.27;16.48;;;;;;;12.33;89.18;101953.03;5073759;28;20066;-59
2022/05/21 05:47:53;;;;;;;27.83;16.27;;;;;;;12.38;89.01;101954.09;5073686;28;20029;-58
2022/05/21 05:50:19;;;;;;;31.48;16.77;;;;;;;12.42;88.85;101955.16;5073548;28;20113;-58
2022/05/21 05:52:44;;;;;;;27.08;16.20;;;;;;;12.47;88.62;101952.34;5073820;28;20482;-58
2022/05/21 05:55:10;;;;;;;28.13;16.02;;;;;;;12.51;88.50;101958.16;5072236;28;20033;-59
2022/05/21 05:57:35;;;;;;;30.25;16.67;;;;;;;12.60;88.44;101951.66;5074654;28;20032;-59
2022/05/21 06:00:01;;;;;;;28.85;17.38;;;;;;;12.67;87.62;101953.25;5073830;28;20021;-59
2022/05/21 06:05:18;;;;;;;27.77;16.10;;;;;;;12.63;87.72;101958.56;5073913;28;20043;-59
2022/05/21 06:07:50;;;;;;;29.83;17.00;;;;;;;12.61;88.03;101967.19;5073765;28;20111;-59
2022/05/21 06:10:19;;;;;;;27.67;16.23;;;;;;;12.59;88.33;101949.19;5072698;28;20028;-59
2022/05/21 06:12:44;;;;;;;29.70;17.63;;;;;;;12.69;87.77;101965.75;5074126;28;20486;-59
2022/05/21 06:15:11;;;;;;;28.65;17.90;;;;;;;12.69;87.82;101956.56;5074052;28;20025;-59
2022/05/21 06:17:38;;;;;;;29.35;16.52;;;;;;;12.69;88.61;101962.13;5074336;28;20348;-58
2022/05/21 06:20:05;;;;;;;28.95;17.17;;;;;;;12.71;87.41;101949.59;5073850;28;20021;-59
2022/05/21 06:22:32;;;;;;;30.00;17.35;;;;;;;12.93;86.63;101963.00;5073841;28;20138;-58
2022/05/21 06:24:57;;;;;;;27.95;16.77;;;;;;;13.05;86.51;101970.06;5074151;28;20103;-58
2022/05/21 06:27:22;;;;;;;30.42;17.50;;;;;;;13.19;86.62;101972.97;5073445;28;20056;-57
2022/05/21 06:29:48;;;;;;;28.40;15.98;;;;;;;13.25;84.83;101966.22;5073374;28;20364;-58
2022/05/21 06:32:13;;;;;;;30.90;17.38;;;;;;;13.25;85.23;101972.59;5072897;28;20033;-59
2022/05/21 06:34:38;;;;;;;29.38;17.00;;;;;;;13.26;85.26;101976.22;5072836;28;20020;-59
2022/05/21 06:37:05;;;;;;;32.28;17.45;;;;;;;13.28;84.60;101979.50;5072897;28;20056;-59
2022/05/21 06:39:34;;;;;;;30.33;17.20;;;;;;;13.30;85.08;101977.28;5072737;28;20035;-61
2022/05/21 06:42:00;;;;;;;29.80;17.10;;;;;;;13.36;84.36;101987.22;5072847;28;20028;-59
2022/05/21 06:44:26;;;;;;;29.45;16.55;;;;;;;13.36;84.15;101984.44;5072907;28;20024;-58
2022/05/21 06:46:52;;;;;;;30.30;16.63;;;;;;;13.45;84.19;101994.94;5073432;28;20032;-59
2022/05/21 06:49:18;;;;;;;24.98;16.90;;;;;;;13.56;84.38;101993.66;5072805;28;20456;-59
2022/05/21 06:51:44;;;;;;;29.23;16.73;;;;;;;13.63;83.59;101994.13;5072164;28;20025;-59
2022/05/21 06:54:09;;;;;;;27.88;17.13;;;;;;;13.70;83.60;101990.94;5072877;28;20055;-58
2022/05/21 06:56:34;;;;;;;27.92;16.95;;;;;;;13.78;82.59;101983.91;5073004;28;20425;-58
2022/05/21 06:59:00;;;;;;;29.48;17.13;;;;;;;13.89;81.93;101986.22;5073115;28;20472;-59
2022/05/21 07:01:26;;;;;;;27.85;16.52;;;;;;;13.96;80.91;101988.63;5073076;28;20116;-59
2022/05/21 07:03:51;;;;;;;30.27;17.02;;;;;;;13.93;80.03;101983.69;5072920;28;20036;-59
2022/05/21 07:09:05;;;;;;;27.88;17.90;;;;;;;13.98;80.86;101988.34;5080957;28;20040;-59
2022/05/21 07:11:30;;;;;;;30.25;16.70;;;;;;;13.96;81.05;101996.97;5072728;28;20029;-58
2022/05/21 07:13:55;;;;;;;28.70;16.50;;;;;;;13.97;80.10;102006.16;5072341;28;20385;-59
2022/05/21 07:16:20;;;;;;;29.90;17.17;;;;;;;13.98;81.11;101997.50;5072270;28;20032;-59
2022/05/21 07:18:46;;;;;;;27.60;16.25;;;;;;;13.98;80.09;102008.63;5072493;28;20027;-58
2022/05/21 07:21:16;;;;;;;30.58;16.52;;;;;;;14.02;80.39;102009.69;5072177;28;20028;-59
2022/05/21 07:23:41;;;;;;;28.08;15.90;;;;;;;14.10;80.23;102007.38;5072645;28;20020;-59
2022/05/21 07:26:07;;;;;;;29.05;15.25;;;;;;;14.22;79.35;102010.50;5072601;28;20051;-59
2022/05/21 07:28:33;;;;;;;26.90;14.95;;;;;;;14.30;78.32;102020.97;5070790;28;20040;-59
2022/05/21 07:30:59;;;;;;;27.88;15.80;;;;;;;14.42;78.45;102016.84;5071597;28;20477;-59
2022/05/21 07:33:24;;;;;;;29.05;15.23;;;;;;;14.49;77.24;102028.47;5070454;28;20036;-59
2022/05/21 07:35:50;;;;;;;29.85;15.38;;;;;;;14.53;78.13;102028.66;5070195;28;20035;-58
2022/05/21 07:38:16;;;;;;;30.38;15.40;;;;;;;14.50;76.86;102025.34;5071869;28;20047;-58
2022/05/21 07:40:44;;;;;;;25.02;14.98;;;;;;;14.50;77.04;102030.09;5070661;28;20062;-59
2022/05/21 07:43:12;;;;;;;26.67;14.30;;;;;;;14.44;76.28;102028.53;5072149;28;20036;-58
2022/05/21 07:45:39;;;;;;;24.95;13.23;;;;;;;14.48;76.94;102032.38;5072190;28;20032;-59
2022/05/21 07:48:10;;;;;;;24.80;13.40;;;;;;;14.51;75.68;102035.38;5071937;28;20581;-59
2022/05/21 07:50:36;;;;;;;23.45;13.15;;;;;;;14.61;75.61;102028.78;5072617;28;20028;-59
2022/05/21 07:53:09;;;;;;;24.80;12.55;;;;;;;14.66;74.84;102037.09;5072502;28;20029;-59
2022/05/21 07:55:34;;;;;;;23.90;13.15;;;;;;;14.69;74.01;102041.22;5072347;28;20356;-59
2022/05/21 07:58:00;;;;;;;25.73;13.30;;;;;;;14.72;74.25;102032.28;5072274;28;20024;-58
2022/05/21 08:00:25;;;;;;;24.77;13.23;;;;;;;14.72;75.12;102031.44;5072062;28;20313;-59
2022/05/21 08:02:50;;;;;;;26.27;14.75;;;;;;;14.85;75.76;102035.38;5072259;28;20484;-59
2022/05/21 08:05:15;;;;;;;28.45;15.18;;;;;;;14.88;76.52;102038.38;5075307;28;20020;-59
2022/05/21 08:07:41;;;;;;;29.73;16.48;;;;;;;14.86;76.33;102046.22;5076302;28;20440;-59
2022/05/21 08:10:07;;;;;;;30.30;15.48;;;;;;;14.94;76.45;102044.69;5075627;28;20024;-60
2022/05/21 08:12:32;;;;;;;25.92;14.75;;;;;;;15.11;75.23;102047.69;5076116;28;20036;-59
2022/05/21 08:14:57;;;;;;;29.92;14.77;;;;;;;15.20;74.13;102044.22;5072629;28;20122;-60
2022/05/21 08:17:23;;;;;;;26.55;15.00;;;;;;;15.27;74.00;102053.00;5075234;28;20052;-59
2022/05/21 08:19:48;;;;;;;24.60;14.25;;;;;;;15.32;73.93;102058.44;5073686;28;20066;-60
2022/05/21 08:27:41;;;;;;;23.15;13.10;;;;;;;15.32;71.75;102044.50;5066572;28;20075;-59
2022/05/21 08:30:07;;;;;;;27.23;13.98;;;;;;;15.61;71.93;102048.94;5067500;28;20045;-59
2022/05/21 08:32:33;;;;;;;28.05;14.60;;;;;;;15.79;71.27;102049.97;5069437;28;20029;-60
2022/05/21 08:35:00;;;;;;;26.40;15.35;;;;;;;15.82;70.31;102049.31;5061881;28;20169;-60
2022/05/21 08:37:26;;;;;;;27.58;14.50;;;;;;;15.93;71.31;102040.75;5073059;28;20025;-60
2022/05/21 08:39:51;;;;;;;25.15;12.88;;;;;;;16.04;68.26;102056.13;5073178;28;20076;-60
2022/05/21 08:42:33;;;;;;;27.55;14.10;;;;;;;16.26;69.30;102049.75;5073960;28;20114;-60
2022/05/21 08:45:16;;;;;;;24.20;13.30;;;;;;;16.35;69.63;102045.06;5072435;28;20032;-61
2022/05/21 08:47:44;;;;;;;27.35;12.85;;;;;;;16.37;67.96;102042.78;5073535;28;20033;-60
2022/05/21 08:50:15;;;;;;;24.02;13.05;;;;;;;16.35;67.58;102050.66;5072506;28;20029;-61
2022/05/21 08:53:04;;;;;;;23.15;12.60;;;;;;;16.43;68.72;102059.44;5073727;28;20032;-61
2022/05/21 08:55:33;;;;;;;23.52;13.88;;;;;;;16.35;67.80;102053.44;5072913;28;20028;-61
2022/05/21 08:58:08;;;;;;;24.25;14.48;;;;;;;16.27;67.93;102039.44;5074234;28;20101;-59
2022/05/21 09:00:41;;;;;;;28.00;14.40;;;;;;;16.23;68.29;102042.03;5074299;28;20051;-59
2022/05/21 09:03:09;;;;;;;27.57;14.30;;;;;;;16.36;67.57;102029.97;5074892;28;20031;-60
2022/05/21 09:05:36;;;;;;;24.70;14.45;;;;;;;16.61;67.29;102040.81;5074529;28;20037;-61
2022/05/21 09:08:31;;;;;;;26.92;14.20;;;;;;;16.77;67.29;102049.63;5074550;28;20043;-60
2022/05/21 09:11:11;;;;;;;23.95;12.73;;;;;;;16.71;65.99;102037.78;5075666;28;20016;-60
2022/05/21 09:14:03;;;;;;;24.20;14.05;;;;;;;16.61;66.46;102032.44;5074930;28;20036;-59
2022/05/21 09:19:21;;;;;;;24.50;12.77;;;;;;;16.84;65.54;102031.28;5074176;28;20085;-60
2022/05/21 09:21:56;;;;;;;23.00;13.18;;;;;;;16.88;65.26;102014.69;5073594;28;20040;-59
2022/05/21 09:24:50;;;;;;;24.00;12.82;;;;;;;17.00;63.64;102039.28;5075229;28;20082;-59
2022/05/21 09:27:33;;;;;;;26.63;14.13;;;;;;;17.10;64.17;102033.41;5073760;28;20021;-60
2022/05/21 09:30:21;;;;;;;23.92;13.85;;;;;;;17.22;64.47;102031.97;5074651;28;20105;-60
2022/05/21 09:32:52;;;;;;;26.50;14.85;;;;;;;17.22;63.64;102031.97;5074581;28;20041;-61
2022/05/21 09:35:20;;;;;;;23.52;13.60;;;;;;;17.26;63.00;102038.56;5072850;28;20033;-60
2022/05/21 09:37:46;;;;;;;24.45;13.75;;;;;;;17.50;62.90;102046.53;5074117;28;20024;-60
2022/05/21 09:40:28;;;;;;;24.98;12.90;;;;;;;17.69;61.82;102037.88;5073794;28;20490;-60
2022/05/21 09:45:39;;;;;;;22.85;11.50;;;;;;;17.69;60.76;102048.25;5074568;28;20051;-60
2022/05/21 09:48:04;;;;;;;25.25;12.25;;;;;;;17.71;60.13;102043.97;5074236;28;20035;-61
2022/05/21 09:50:51;;;;;;;21.33;10.97;;;;;;;17.84;60.09;102046.94;5073999;28;20036;-59
2022/05/21 09:53:37;;;;;;;21.83;11.50;;;;;;;17.75;61.47;102041.34;5069980;28;20078;-60
2022/05/21 09:56:21;;;;;;;24.17;13.38;;;;;;;17.55;62.57;102051.16;5073593;28;20453;-60
2022/05/21 09:58:50;;;;;;;22.98;13.35;;;;;;;17.28;61.99;102053.91;5073005;28;20093;-60
2022/05/21 10:01:32;;;;;;;23.88;13.40;;;;;;;17.10;62.09;102052.13;5073967;28;20028;-61
2022/05/21 10:03:59;;;;;;;25.98;13.20;;;;;;;17.12;62.69;102052.66;5074624;28;20033;-60
2022/05/21 10:06:29;;;;;;;24.17;12.63;;;;;;;17.29;61.56;102049.91;5073459;28;20035;-60
2022/05/21 10:11:53;;;;;;;22.80;13.10;;;;;;;17.83;61.38;102048.09;5073862;28;20106;-60
2022/05/21 10:14:37;;;;;;;23.08;12.10;;;;;;;17.83;60.58;102053.69;5073575;28;20032;-61
2022/05/21 10:17:18;;;;;;;22.33;11.50;;;;;;;17.87;59.98;102052.72;5072174;28;20036;-60
2022/05/21 10:20:20;;;;;;;22.52;12.02;;;;;;;18.17;60.23;102066.13;5073223;28;20027;-60
2022/05/21 10:23:10;;;;;;;21.77;11.50;;;;;;;18.26;59.90;102063.31;5061588;28;20036;-60
2022/05/21 10:25:59;;;;;;;24.02;11.38;;;;;;;18.35;59.03;102058.53;5073418;28;20043;-60
2022/05/21 10:28:36;;;;;;;22.17;13.15;;;;;;;18.31;58.15;102054.78;5071265;28;20076;-60
2022/05/21 10:31:14;;;;;;;22.73;12.73;;;;;;;18.26;59.29;102066.13;5067702;28;20025;-60
2022/05/21 10:34:24;;;;;;;25.15;12.60;;;;;;;18.17;59.73;102055.75;5054913;28;20040;-60
2022/05/21 10:37:05;;;;;;;25.67;12.38;;;;;;;18.16;59.99;102045.69;5070388;28;20052;-59
2022/05/21 10:39:46;;;;;;;23.70;12.60;;;;;;;18.32;58.65;102050.81;5068054;28;20500;-60
2022/05/21 10:42:30;;;;;;;22.83;12.35;;;;;;;18.40;58.33;102056.41;5061735;28;20032;-59
2022/05/21 10:45:08;;;;;;;;;;;;;;;18.59;57.53;102052.44;5060292;28;20414;-60
2022/05/21 10:47:59;;;;;;;20.95;12.00;;;;;;;18.40;57.91;102058.41;5061500;28;19947;-59
2022/05/21 10:50:37;;;;;;;20.48;12.55;;;;;;;18.17;58.25;102068.94;5060593;28;20086;-59
2022/05/21 10:53:20;;;;;;;24.38;12.15;;;;;;;17.94;59.38;102074.63;5061210;28;20025;-58
2022/05/21 10:56:09;;;;;;;21.70;11.88;;;;;;;17.78;61.04;102069.50;5062149;28;20024;-60
2022/05/21 10:58:43;;;;;;;25.27;12.50;;;;;;;17.74;60.60;102071.31;5058136;28;20031;-60
2022/05/21 11:01:20;;;;;;;20.60;11.55;;;;;;;17.91;60.54;102070.53;5050889;28;20080;-59
2022/05/21 11:04:09;;;;;;;23.27;11.93;;;;;;;18.21;59.40;102067.13;5051317;28;20037;-61
2022/05/21 11:06:50;;;;;;;23.13;12.68;;;;;;;18.43;59.40;102073.72;5055773;28;20764;-59
2022/05/21 11:09:39;;;;;;;21.55;12.02;;;;;;;18.61;58.76;102069.75;5071023;28;20033;-60
2022/05/21 11:12:16;;;;;;;22.90;12.95;;;;;;;18.69;56.60;102054.88;5070870;28;20039;-60
2022/05/21 11:14:51;;;;;;;21.92;12.55;;;;;;;18.60;57.32;102059.69;5070574;28;20033;-60
2022/05/21 11:17:23;;;;;;;23.23;12.95;;;;;;;18.50;58.04;102072.06;5070826;28;20111;-60
2022/05/21 11:20:11;;;;;;;23.02;12.57;;;;;;;18.55;58.42;102074.69;5055655;28;20086;-59
2022/05/21 11:22:44;;;;;;;21.55;11.90;;;;;;;18.67;56.91;102073.19;5050699;28;20095;-60
2022/05/21 11:25:24;;;;;;;19.45;10.52;;;;;;;18.75;55.70;102072.34;5050984;28;20029;-60
2022/05/21 11:27:59;;;;;;;20.95;10.70;;;;;;;18.61;54.59;102082.94;5050594;28;20060;-59
2022/05/21 11:30:25;;;;;;;20.17;10.30;;;;;;;18.32;54.71;102095.63;5050776;28;20021;-59
2022/05/21 11:38:43;;;;;;;21.65;10.73;;;;;;;18.22;55.87;102078.00;5070668;28;20051;-60
2022/05/21 11:41:28;;;;;;;20.20;10.07;;;;;;;18.40;54.99;102078.00;5071370;28;20107;-59
2022/05/21 11:44:55;;;;;;;18.52;10.10;;;;;;;18.62;53.75;102064.94;5069634;28;20033;-58
2022/05/21 11:46:46;;;;;;;21.23;10.10;;;;;;;18.69;54.17;102065.28;5050377;28;20033;-59
2022/05/21 11:49:26;;;;;;;18.38;9.65;;;;;;;18.85;54.22;102066.41;5062466;28;20037;-60
2022/05/21 11:51:52;;;;;;;17.70;10.77;;;;;;;18.80;52.47;102060.16;5069443;28;20104;-59
2022/05/21 11:54:45;;;;;;;19.38;9.73;;;;;;;18.93;54.05;102061.13;5052965;28;20127;-59
2022/05/21 11:57:11;;;;;;;20.30;10.57;;;;;;;18.99;54.80;102069.03;5061002;28;20333;-58
2022/05/21 11:59:51;;;;;;;18.88;9.68;;;;;;;19.09;53.91;102047.41;5057508;28;20467;-59